Decoded Metar for SANT (TUCUMAN in ARGENTINA) (IATA:TUC) | Meteo·Mobile Aviation Weather
aviador You're here:

SANT Decoded Metar

TUCUMAN in ARGENTINA
Report Time2019-02-20 01:00:00
UTC Time2019-02-20 01:43:33
Flight Rules vfr VFR
Wind090° at 04 kt
W.Decomp.*RWY 01: 0.3 kt HW 4.0 kt RCW
W.Rank090° ranks 7
Current wind is below 090° avg. (6.2)
Visibility9999 m
Phenomena:N/A
Clouds:N/A
Expected CloudBase > 2,000 ft AGL from Temp-Dew spread
CeilingNone
Temp28°C (ISA +16)
Dew Point23°C (74% RH)
Heat Index31.2°C
QNH1008 hPa
Density Alt3,852 ft
Elevation1,476 ft
Report Wrong Elevation
Raw Report
METAR SANT 200100Z 09004KT CAVOK 28/23 Q1008=

Extra information for SANT:More info

Metar Taf Metar & Taf Last 4 Metars F.Rules Stats Wind Profile Meteogram Temp Stats Airport Information Weather charts Add Link Nearby VenuesMetar ALERT Operation Metar Decoded Social comments